Time,TemperatureF,DewpointF,PressureIn,WindDirection,WindDirectionDegrees,WindSpeedMPH,WindSpeedGustMPH,Humidity,HourlyPrecipIn,Conditions,Clouds,dailyrainin,SoftwareType,DateUTC
2013-04-12 00:02:00,44.6,41.6,29.81,East,90,2.7,-999.0,89,-99.99,,,0.00,Acu-Link.com,2013-04-12 05:02:00,
2013-04-12 00:17:00,45.1,41.5,29.81,NNE,22,2.7,-999.0,87,-99.99,,,0.00,Acu-Link.com,2013-04-12 05:17:00,
2013-04-12 00:32:00,44.8,41.2,29.81,NE,45,0.0,-999.0,87,-99.99,,,0.00,Acu-Link.com,2013-04-12 05:32:00,
2013-04-12 00:48:00,44.2,40.9,29.82,NNW,337,0.0,-999.0,88,-99.99,,,0.00,Acu-Link.com,2013-04-12 05:48:00,
2013-04-12 01:03:00,43.7,40.7,29.83,WNW,292,0.0,-999.0,89,-99.99,,,0.00,Acu-Link.com,2013-04-12 06:03:00,
2013-04-12 01:18:00,43.5,40.8,29.82,NE,45,0.0,-999.0,90,-99.99,,,0.00,Acu-Link.com,2013-04-12 06:18:00,
2013-04-12 01:33:00,43.9,41.4,29.83,NNW,337,0.0,-999.0,91,-99.99,,,0.00,Acu-Link.com,2013-04-12 06:33:00,
2013-04-12 01:48:00,43.0,42.5,29.83,NNW,337,4.7,-999.0,98,-99.99,,,0.00,Acu-Link.com,2013-04-12 06:48:00,
2013-04-12 02:03:00,42.8,42.3,29.85,West,270,0.0,-999.0,98,-99.99,,,0.00,Acu-Link.com,2013-04-12 07:03:00,
2013-04-12 02:19:00,41.9,41.4,29.85,West,270,0.0,-999.0,98,-99.99,,,0.00,Acu-Link.com,2013-04-12 07:19:00,
2013-04-12 02:34:00,42.4,41.9,29.85,North,0,3.8,-999.0,98,-99.99,,,0.00,Acu-Link.com,2013-04-12 07:34:00,
2013-04-12 02:49:00,43.7,41.2,29.85,NNW,337,4.3,-999.0,91,-99.99,,,0.00,Acu-Link.com,2013-04-12 07:49:00,
2013-04-12 03:06:00,43.7,41.5,29.85,WNW,292,0.0,-999.0,92,-99.99,,,0.00,Acu-Link.com,2013-04-12 08:06:00,
2013-04-12 03:36:00,42.8,41.7,29.85,North,0,2.7,-999.0,96,-99.99,,,0.00,Acu-Link.com,2013-04-12 08:36:00,
2013-04-12 03:51:00,42.8,41.7,29.86,NNW,337,2.2,-999.0,96,-99.99,,,0.00,Acu-Link.com,2013-04-12 08:51:00,
2013-04-12 04:07:00,42.1,41.6,29.85,WNW,292,0.0,-999.0,98,-99.99,,,0.00,Acu-Link.com,2013-04-12 09:07:00,
2013-04-12 04:22:00,41.4,40.8,29.86,NW,315,0.0,-999.0,98,-99.99,,,0.00,Acu-Link.com,2013-04-12 09:22:00,
2013-04-12 04:37:00,41.5,41.0,29.86,North,0,0.0,-999.0,98,-99.99,,,0.00,Acu-Link.com,2013-04-12 09:37:00,
2013-04-12 04:52:00,41.0,40.5,29.86,ENE,67,3.1,-999.0,98,-99.99,,,0.00,Acu-Link.com,2013-04-12 09:52:00,
2013-04-12 05:07:00,41.4,40.6,29.86,NNE,22,3.8,-999.0,97,-99.99,,,0.00,Acu-Link.com,2013-04-12 10:07:00,
2013-04-12 05:22:00,41.2,39.9,29.87,NNE,22,2.7,-999.0,95,-99.99,,,0.00,Acu-Link.com,2013-04-12 10:22:00,
2013-04-12 05:37:00,40.6,40.1,29.87,ESE,112,0.0,-999.0,98,-99.99,,,0.00,Acu-Link.com,2013-04-12 10:37:00,
2013-04-12 05:52:00,41.4,40.8,29.87,ESE,112,0.0,-999.0,98,-99.99,,,0.00,Acu-Link.com,2013-04-12 10:52:00,
2013-04-12 06:08:00,41.2,40.4,29.87,NNW,337,0.0,-999.0,97,-99.99,,,0.00,Acu-Link.com,2013-04-12 11:08:00,
2013-04-12 06:23:00,40.6,40.1,29.87,West,270,0.0,-999.0,98,-99.99,,,0.00,Acu-Link.com,2013-04-12 11:23:00,
2013-04-12 06:38:00,40.3,39.8,29.88,East,90,0.0,-999.0,98,-99.99,,,0.00,Acu-Link.com,2013-04-12 11:38:00,
2013-04-12 06:53:00,41.7,41.2,29.88,SSW,202,0.0,-999.0,98,-99.99,,,0.00,Acu-Link.com,2013-04-12 11:53:00,
2013-04-12 07:09:00,41.9,40.8,29.89,West,270,0.0,-999.0,96,-99.99,,,0.00,Acu-Link.com,2013-04-12 12:09:00,
2013-04-12 07:24:00,43.3,40.9,29.89,SW,225,0.0,-999.0,91,-99.99,,,0.00,Acu-Link.com,2013-04-12 12:24:00,
2013-04-12 07:39:00,46.0,40.2,29.90,East,90,0.0,-999.0,80,-99.99,,,0.00,Acu-Link.com,2013-04-12 12:39:00,
2013-04-12 07:54:00,46.4,40.6,29.91,NE,45,8.3,-999.0,80,-99.99,,,0.00,Acu-Link.com,2013-04-12 12:54:00,
2013-04-12 08:09:00,45.9,40.4,29.92,ENE,67,7.4,-999.0,81,-99.99,,,0.00,Acu-Link.com,2013-04-12 13:09:00,
2013-04-12 08:25:00,46.0,40.9,29.92,ESE,112,3.8,-999.0,82,-99.99,,,0.00,Acu-Link.com,2013-04-12 13:25:00,
2013-04-12 08:40:00,45.7,41.1,29.93,NE,45,8.9,-999.0,84,-99.99,,,0.00,Acu-Link.com,2013-04-12 13:40:00,
2013-04-12 08:55:00,45.7,41.1,29.94,East,90,7.4,-999.0,84,-99.99,,,0.00,Acu-Link.com,2013-04-12 13:55:00,
2013-04-12 09:10:00,46.6,41.4,29.94,North,0,3.8,-999.0,82,-99.99,,,0.00,Acu-Link.com,2013-04-12 14:10:00,
2013-04-12 09:25:00,46.6,41.4,29.93,ENE,67,8.3,-999.0,82,-99.99,,,0.00,Acu-Link.com,2013-04-12 14:25:00,
2013-04-12 09:41:00,47.5,40.6,29.94,East,90,7.8,-999.0,77,-99.99,,,0.00,Acu-Link.com,2013-04-12 14:41:00,
2013-04-12 09:56:00,48.4,40.5,29.96,ENE,67,3.1,-999.0,74,-99.99,,,0.00,Acu-Link.com,2013-04-12 14:56:00,
2013-04-12 10:11:00,51.3,41.4,29.96,SE,135,1.1,-999.0,69,-99.99,,,0.00,Acu-Link.com,2013-04-12 15:11:00,
2013-04-12 10:26:00,53.8,41.5,29.97,East,90,6.7,-999.0,63,-99.99,,,0.00,Acu-Link.com,2013-04-12 15:26:00,
2013-04-12 10:41:00,53.4,39.5,29.98,East,90,9.4,-999.0,59,-99.99,,,0.00,Acu-Link.com,2013-04-12 15:41:00,
2013-04-12 10:57:00,55.6,41.5,29.98,ESE,112,5.1,-999.0,59,-99.99,,,0.00,Acu-Link.com,2013-04-12 15:57:00,
2013-04-12 11:12:00,56.1,41.1,29.98,NE,45,6.3,-999.0,57,-99.99,,,0.00,Acu-Link.com,2013-04-12 16:12:00,
2013-04-12 11:27:00,56.8,41.3,29.99,ENE,67,5.1,-999.0,56,-99.99,,,0.00,Acu-Link.com,2013-04-12 16:27:00,
2013-04-12 11:42:00,57.6,41.0,29.99,East,90,7.4,-999.0,54,-99.99,,,0.00,Acu-Link.com,2013-04-12 16:42:00,
2013-04-12 11:58:00,59.9,41.7,30.00,East,90,6.7,-999.0,51,-99.99,,,0.00,Acu-Link.com,2013-04-12 16:58:00,
2013-04-12 12:13:00,59.4,40.2,29.99,NE,45,7.8,-999.0,49,-99.99,,,0.00,Acu-Link.com,2013-04-12 17:13:00,
2013-04-12 12:28:00,61.0,40.1,29.98,ENE,67,11.9,-999.0,46,-99.99,,,0.00,Acu-Link.com,2013-04-12 17:28:00,
2013-04-12 12:43:00,61.9,40.9,29.97,ENE,67,11.4,-999.0,46,-99.99,,,0.00,Acu-Link.com,2013-04-12 17:43:00,
2013-04-12 12:58:00,63.1,42.6,29.97,East,90,7.8,-999.0,47,-99.99,,,0.00,Acu-Link.com,2013-04-12 17:58:00,
2013-04-12 13:14:00,64.6,43.9,29.96,ESE,112,8.9,-999.0,47,-99.99,,,0.00,Acu-Link.com,2013-04-12 18:14:00,
2013-04-12 13:29:00,64.6,44.4,29.95,NNE,22,8.3,-999.0,48,-99.99,,,0.00,Acu-Link.com,2013-04-12 18:29:00,
2013-04-12 14:30:00,67.1,45.6,29.93,East,90,8.3,-999.0,46,-99.99,,,0.00,Acu-Link.com,2013-04-12 19:30:00,
2013-04-12 14:45:00,67.1,46.2,29.93,East,90,2.2,-999.0,47,-99.99,,,0.00,Acu-Link.com,2013-04-12 19:45:00,
2013-04-12 15:00:00,68.4,48.4,29.92,ESE,112,4.3,-999.0,49,-99.99,,,0.00,Acu-Link.com,2013-04-12 20:00:00,
2013-04-12 15:15:00,69.1,48.6,29.90,ESE,112,9.4,-999.0,48,-99.99,,,0.00,Acu-Link.com,2013-04-12 20:15:00,
2013-04-12 15:30:00,69.1,48.6,29.89,SE,135,8.3,-999.0,48,-99.99,,,0.00,Acu-Link.com,2013-04-12 20:30:00,
2013-04-12 15:45:00,68.7,47.7,29.89,SE,135,5.8,-999.0,47,-99.99,,,0.00,Acu-Link.com,2013-04-12 20:45:00,
2013-04-12 16:01:00,70.5,49.3,29.88,SSW,202,7.8,-999.0,47,-99.99,,,0.00,Acu-Link.com,2013-04-12 21:01:00,
2013-04-12 16:16:00,70.2,47.2,29.86,SE,135,9.4,-999.0,44,-99.99,,,0.00,Acu-Link.com,2013-04-12 21:16:00,
2013-04-12 16:31:00,70.9,48.5,29.86,SE,135,7.8,-999.0,45,-99.99,,,0.00,Acu-Link.com,2013-04-12 21:31:00,
2013-04-12 16:46:00,70.2,46.6,29.85,ESE,112,8.9,-999.0,43,-99.99,,,0.00,Acu-Link.com,2013-04-12 21:46:00,
2013-04-12 17:01:00,70.0,46.4,29.86,East,90,6.7,-999.0,43,-99.99,,,0.00,Acu-Link.com,2013-04-12 22:01:00,
2013-04-12 17:32:00,69.1,46.8,29.86,ESE,112,7.4,-999.0,45,-99.99,,,0.00,Acu-Link.com,2013-04-12 22:32:00,
2013-04-12 17:47:00,70.2,47.2,29.86,ESE,112,6.3,-999.0,44,-99.99,,,0.00,Acu-Link.com,2013-04-12 22:47:00,
2013-04-12 18:02:00,69.3,47.6,29.86,ESE,112,9.4,-999.0,46,-99.99,,,0.00,Acu-Link.com,2013-04-12 23:02:00,
2013-04-12 18:17:00,68.7,47.1,29.86,SSE,157,7.8,-999.0,46,-99.99,,,0.00,Acu-Link.com,2013-04-12 23:17:00,
2013-04-12 18:33:00,67.6,46.7,29.86,ESE,112,9.8,-999.0,47,-99.99,,,0.00,Acu-Link.com,2013-04-12 23:33:00,
2013-04-12 18:48:00,66.6,46.8,29.86,ESE,112,7.4,-999.0,49,-99.99,,,0.00,Acu-Link.com,2013-04-12 23:48:00,
2013-04-12 19:03:00,65.8,47.2,29.85,ESE,112,8.9,-999.0,51,-99.99,,,0.00,Acu-Link.com,2013-04-13 00:03:00,
2013-04-12 19:18:00,65.5,47.9,29.85,ESE,112,6.3,-999.0,53,-99.99,,,0.00,Acu-Link.com,2013-04-13 00:18:00,
2013-04-12 19:34:00,64.9,47.9,29.85,ESE,112,4.3,-999.0,54,-99.99,,,0.00,Acu-Link.com,2013-04-13 00:34:00,
2013-04-12 19:49:00,63.5,48.5,29.85,ESE,112,6.3,-999.0,58,-99.99,,,0.00,Acu-Link.com,2013-04-13 00:49:00,
2013-04-12 20:04:00,62.1,49.3,29.84,ESE,112,3.8,-999.0,63,-99.99,,,0.00,Acu-Link.com,2013-04-13 01:04:00,
2013-04-12 20:19:00,60.4,49.8,29.85,SE,135,2.2,-999.0,68,-99.99,,,0.00,Acu-Link.com,2013-04-13 01:19:00,
2013-04-12 20:34:00,59.7,48.3,29.85,ESE,112,6.3,-999.0,66,-99.99,,,0.00,Acu-Link.com,2013-04-13 01:34:00,
2013-04-12 20:50:00,58.1,48.7,29.85,East,90,3.8,-999.0,71,-99.99,,,0.00,Acu-Link.com,2013-04-13 01:50:00,
2013-04-12 21:05:00,57.9,48.9,29.85,ESE,112,8.3,-999.0,72,-99.99,,,0.00,Acu-Link.com,2013-04-13 02:05:00,
2013-04-12 21:20:00,57.0,49.5,29.85,East,90,8.9,-999.0,76,-99.99,,,0.00,Acu-Link.com,2013-04-13 02:20:00,
2013-04-12 21:35:00,55.8,49.3,29.86,NE,45,8.9,-999.0,79,-99.99,,,0.00,Acu-Link.com,2013-04-13 02:35:00,
2013-04-12 21:50:00,55.4,49.0,29.86,East,90,7.8,-999.0,79,-99.99,,,0.00,Acu-Link.com,2013-04-13 02:50:00,
2013-04-12 22:06:00,54.9,48.1,29.86,NE,45,9.8,-999.0,78,-99.99,,,0.00,Acu-Link.com,2013-04-13 03:06:00,
2013-04-12 22:36:00,53.8,47.1,29.87,East,90,7.8,-999.0,78,-99.99,,,0.00,Acu-Link.com,2013-04-13 03:36:00,
2013-04-12 22:51:00,53.6,47.2,29.88,ESE,112,8.9,-999.0,79,-99.99,,,0.00,Acu-Link.com,2013-04-13 03:51:00,
2013-04-12 23:06:00,53.2,47.2,29.88,East,90,6.7,-999.0,80,-99.99,,,0.00,Acu-Link.com,2013-04-13 04:06:00,
2013-04-12 23:22:00,53.2,47.2,29.88,NE,45,10.3,-999.0,80,-99.99,,,0.00,Acu-Link.com,2013-04-13 04:22:00,
2013-04-12 23:37:00,53.1,47.1,29.88,ESE,112,6.7,-999.0,80,-99.99,,,0.00,Acu-Link.com,2013-04-13 04:37:00,
2013-04-12 23:52:00,52.7,46.7,29.89,NE,45,7.4,-999.0,80,-99.99,,,0.00,Acu-Link.com,2013-04-13 04:52:00,